sensor_id;sensor_type;location;lat;lon;timestamp;P1;durP1;ratioP1;P2;durP2;ratioP2
33074;SDS011;19433;51.292;6.868;2023-04-25T00:00:33;10.33;;;5.90;;
33074;SDS011;19433;51.292;6.868;2023-04-25T00:03:01;16.40;;;7.73;;
33074;SDS011;19433;51.292;6.868;2023-04-25T00:08:02;8.53;;;6.03;;
33074;SDS011;19433;51.292;6.868;2023-04-25T00:10:29;9.50;;;5.60;;
33074;SDS011;19433;51.292;6.868;2023-04-25T00:12:54;11.07;;;5.83;;
33074;SDS011;19433;51.292;6.868;2023-04-25T00:15:20;12.30;;;6.60;;
33074;SDS011;19433;51.292;6.868;2023-04-25T00:17:46;13.27;;;6.23;;
33074;SDS011;19433;51.292;6.868;2023-04-25T00:20:14;10.23;;;5.60;;
33074;SDS011;19433;51.292;6.868;2023-04-25T00:22:40;12.43;;;5.77;;
33074;SDS011;19433;51.292;6.868;2023-04-25T00:25:06;11.40;;;6.80;;
33074;SDS011;19433;51.292;6.868;2023-04-25T00:30:01;10.90;;;6.00;;
33074;SDS011;19433;51.292;6.868;2023-04-25T00:32:28;8.97;;;6.60;;
33074;SDS011;19433;51.292;6.868;2023-04-25T00:34:54;9.53;;;4.50;;
33074;SDS011;19433;51.292;6.868;2023-04-25T00:37:20;14.20;;;7.50;;
33074;SDS011;19433;51.292;6.868;2023-04-25T00:39:46;11.03;;;5.90;;
33074;SDS011;19433;51.292;6.868;2023-04-25T00:42:12;10.37;;;6.20;;
33074;SDS011;19433;51.292;6.868;2023-04-25T00:47:13;10.27;;;5.67;;
33074;SDS011;19433;51.292;6.868;2023-04-25T00:52:14;9.57;;;5.47;;
33074;SDS011;19433;51.292;6.868;2023-04-25T00:54:39;10.87;;;5.07;;
33074;SDS011;19433;51.292;6.868;2023-04-25T00:59:41;5.73;;;4.37;;
33074;SDS011;19433;51.292;6.868;2023-04-25T01:02:13;13.40;;;5.63;;
33074;SDS011;19433;51.292;6.868;2023-04-25T01:04:38;12.13;;;6.10;;
33074;SDS011;19433;51.292;6.868;2023-04-25T01:07:04;13.43;;;6.47;;
33074;SDS011;19433;51.292;6.868;2023-04-25T01:09:30;6.83;;;4.50;;
33074;SDS011;19433;51.292;6.868;2023-04-25T01:11:59;10.20;;;5.53;;
33074;SDS011;19433;51.292;6.868;2023-04-25T01:14:26;10.30;;;5.73;;
33074;SDS011;19433;51.292;6.868;2023-04-25T01:16:54;9.87;;;5.33;;
33074;SDS011;19433;51.292;6.868;2023-04-25T01:19:19;11.13;;;5.17;;
33074;SDS011;19433;51.292;6.868;2023-04-25T01:21:45;7.17;;;4.63;;
33074;SDS011;19433;51.292;6.868;2023-04-25T01:24:11;12.83;;;5.10;;
33074;SDS011;19433;51.292;6.868;2023-04-25T01:26:37;5.47;;;4.20;;
33074;SDS011;19433;51.292;6.868;2023-04-25T01:29:04;5.17;;;4.27;;
33074;SDS011;19433;51.292;6.868;2023-04-25T01:31:31;12.20;;;5.23;;
33074;SDS011;19433;51.292;6.868;2023-04-25T01:33:58;7.37;;;4.70;;
33074;SDS011;19433;51.292;6.868;2023-04-25T01:36:23;8.90;;;4.87;;
33074;SDS011;19433;51.292;6.868;2023-04-25T01:38:49;10.77;;;4.73;;
33074;SDS011;19433;51.292;6.868;2023-04-25T01:41:15;6.53;;;4.00;;
33074;SDS011;19433;51.292;6.868;2023-04-25T01:43:42;7.47;;;4.47;;
33074;SDS011;19433;51.292;6.868;2023-04-25T01:46:08;11.43;;;5.30;;
33074;SDS011;19433;51.292;6.868;2023-04-25T01:48:35;10.03;;;4.60;;
33074;SDS011;19433;51.292;6.868;2023-04-25T01:51:02;8.00;;;5.50;;
33074;SDS011;19433;51.292;6.868;2023-04-25T01:53:28;9.20;;;4.30;;
33074;SDS011;19433;51.292;6.868;2023-04-25T01:55:56;16.20;;;5.10;;
33074;SDS011;19433;51.292;6.868;2023-04-25T02:00:49;11.10;;;4.63;;
33074;SDS011;19433;51.292;6.868;2023-04-25T02:03:15;11.53;;;5.90;;
33074;SDS011;19433;51.292;6.868;2023-04-25T02:05:41;8.43;;;5.10;;
33074;SDS011;19433;51.292;6.868;2023-04-25T02:08:16;8.50;;;5.90;;
33074;SDS011;19433;51.292;6.868;2023-04-25T02:10:43;10.00;;;5.00;;
33074;SDS011;19433;51.292;6.868;2023-04-25T02:13:18;5.43;;;4.77;;
33074;SDS011;19433;51.292;6.868;2023-04-25T02:18:19;7.27;;;5.27;;
33074;SDS011;19433;51.292;6.868;2023-04-25T02:20:46;6.90;;;5.30;;
33074;SDS011;19433;51.292;6.868;2023-04-25T02:23:12;9.77;;;4.70;;
33074;SDS011;19433;51.292;6.868;2023-04-25T02:25:38;12.27;;;5.03;;
33074;SDS011;19433;51.292;6.868;2023-04-25T02:28:04;11.00;;;5.57;;
33074;SDS011;19433;51.292;6.868;2023-04-25T02:30:29;8.00;;;5.20;;
33074;SDS011;19433;51.292;6.868;2023-04-25T02:32:57;8.90;;;4.97;;
33074;SDS011;19433;51.292;6.868;2023-04-25T02:35:23;6.40;;;4.83;;
33074;SDS011;19433;51.292;6.868;2023-04-25T02:37:48;8.20;;;4.10;;
33074;SDS011;19433;51.292;6.868;2023-04-25T02:42:52;5.37;;;4.33;;
33074;SDS011;19433;51.292;6.868;2023-04-25T02:45:18;5.07;;;4.00;;
33074;SDS011;19433;51.292;6.868;2023-04-25T02:47:43;7.60;;;5.17;;
33074;SDS011;19433;51.292;6.868;2023-04-25T02:50:09;7.10;;;4.30;;
33074;SDS011;19433;51.292;6.868;2023-04-25T02:52:34;9.73;;;4.57;;
33074;SDS011;19433;51.292;6.868;2023-04-25T02:55:00;6.87;;;4.43;;
33074;SDS011;19433;51.292;6.868;2023-04-25T02:57:25;8.57;;;4.43;;
33074;SDS011;19433;51.292;6.868;2023-04-25T02:59:51;9.70;;;4.60;;
33074;SDS011;19433;51.292;6.868;2023-04-25T03:02:16;6.43;;;3.90;;
33074;SDS011;19433;51.292;6.868;2023-04-25T03:04:42;6.13;;;4.40;;
33074;SDS011;19433;51.292;6.868;2023-04-25T03:07:07;7.80;;;4.27;;
33074;SDS011;19433;51.292;6.868;2023-04-25T03:09:33;9.67;;;4.83;;
33074;SDS011;19433;51.292;6.868;2023-04-25T03:11:58;8.43;;;4.30;;
33074;SDS011;19433;51.292;6.868;2023-04-25T03:14:24;7.13;;;4.30;;
33074;SDS011;19433;51.292;6.868;2023-04-25T03:16:49;9.13;;;5.33;;
33074;SDS011;19433;51.292;6.868;2023-04-25T03:19:15;9.03;;;5.73;;
33074;SDS011;19433;51.292;6.868;2023-04-25T03:21:43;8.40;;;5.33;;
33074;SDS011;19433;51.292;6.868;2023-04-25T03:24:09;7.27;;;4.90;;
33074;SDS011;19433;51.292;6.868;2023-04-25T03:26:36;8.50;;;5.90;;
33074;SDS011;19433;51.292;6.868;2023-04-25T03:29:01;6.93;;;4.83;;
33074;SDS011;19433;51.292;6.868;2023-04-25T03:31:27;8.13;;;4.53;;
33074;SDS011;19433;51.292;6.868;2023-04-25T03:36:26;8.27;;;5.00;;
33074;SDS011;19433;51.292;6.868;2023-04-25T03:38:52;6.20;;;4.73;;
33074;SDS011;19433;51.292;6.868;2023-04-25T03:41:17;9.23;;;5.63;;
33074;SDS011;19433;51.292;6.868;2023-04-25T03:43:43;13.83;;;5.20;;
33074;SDS011;19433;51.292;6.868;2023-04-25T03:46:08;12.50;;;5.97;;
33074;SDS011;19433;51.292;6.868;2023-04-25T03:48:34;7.50;;;5.53;;
33074;SDS011;19433;51.292;6.868;2023-04-25T03:50:59;9.83;;;4.57;;
33074;SDS011;19433;51.292;6.868;2023-04-25T03:53:25;8.40;;;5.50;;
33074;SDS011;19433;51.292;6.868;2023-04-25T03:55:51;10.17;;;5.93;;
33074;SDS011;19433;51.292;6.868;2023-04-25T03:58:16;14.93;;;5.80;;
33074;SDS011;19433;51.292;6.868;2023-04-25T04:00:42;12.83;;;6.90;;
33074;SDS011;19433;51.292;6.868;2023-04-25T04:05:44;9.60;;;5.40;;
33074;SDS011;19433;51.292;6.868;2023-04-25T04:08:10;13.27;;;5.80;;
33074;SDS011;19433;51.292;6.868;2023-04-25T04:10:35;17.10;;;7.00;;
33074;SDS011;19433;51.292;6.868;2023-04-25T04:13:01;17.87;;;5.47;;
33074;SDS011;19433;51.292;6.868;2023-04-25T04:15:26;10.03;;;5.70;;
33074;SDS011;19433;51.292;6.868;2023-04-25T04:17:52;12.77;;;5.30;;
33074;SDS011;19433;51.292;6.868;2023-04-25T04:20:23;11.23;;;6.93;;
33074;SDS011;19433;51.292;6.868;2023-04-25T04:22:48;12.50;;;5.63;;
33074;SDS011;19433;51.292;6.868;2023-04-25T04:25:14;12.17;;;6.20;;
33074;SDS011;19433;51.292;6.868;2023-04-25T04:27:39;11.70;;;6.30;;
33074;SDS011;19433;51.292;6.868;2023-04-25T04:32:59;8.20;;;6.00;;
33074;SDS011;19433;51.292;6.868;2023-04-25T04:35:34;15.17;;;5.97;;
33074;SDS011;19433;51.292;6.868;2023-04-25T04:38:02;8.50;;;6.20;;
33074;SDS011;19433;51.292;6.868;2023-04-25T04:40:33;10.00;;;5.80;;
33074;SDS011;19433;51.292;6.868;2023-04-25T04:43:02;11.93;;;6.03;;
33074;SDS011;19433;51.292;6.868;2023-04-25T04:45:28;13.87;;;6.33;;
33074;SDS011;19433;51.292;6.868;2023-04-25T04:47:54;13.70;;;5.90;;
33074;SDS011;19433;51.292;6.868;2023-04-25T04:50:20;9.03;;;4.70;;
33074;SDS011;19433;51.292;6.868;2023-04-25T04:55:24;14.00;;;6.87;;
33074;SDS011;19433;51.292;6.868;2023-04-25T04:57:58;14.07;;;6.00;;
33074;SDS011;19433;51.292;6.868;2023-04-25T05:00:24;14.93;;;6.23;;
33074;SDS011;19433;51.292;6.868;2023-04-25T05:02:59;9.10;;;5.70;;
33074;SDS011;19433;51.292;6.868;2023-04-25T05:05:25;9.77;;;7.47;;
33074;SDS011;19433;51.292;6.868;2023-04-25T05:07:51;13.00;;;6.63;;
33074;SDS011;19433;51.292;6.868;2023-04-25T05:10:17;17.77;;;8.30;;
33074;SDS011;19433;51.292;6.868;2023-04-25T05:12:45;14.33;;;7.43;;
33074;SDS011;19433;51.292;6.868;2023-04-25T05:15:11;8.43;;;6.00;;
33074;SDS011;19433;51.292;6.868;2023-04-25T05:20:10;14.70;;;6.30;;
33074;SDS011;19433;51.292;6.868;2023-04-25T05:22:39;16.37;;;7.40;;
33074;SDS011;19433;51.292;6.868;2023-04-25T05:25:08;11.10;;;6.07;;
33074;SDS011;19433;51.292;6.868;2023-04-25T05:27:34;10.90;;;6.50;;
33074;SDS011;19433;51.292;6.868;2023-04-25T05:30:02;11.07;;;6.97;;
33074;SDS011;19433;51.292;6.868;2023-04-25T05:32:28;11.93;;;7.07;;
33074;SDS011;19433;51.292;6.868;2023-04-25T05:34:53;15.87;;;6.33;;
33074;SDS011;19433;51.292;6.868;2023-04-25T05:37:19;11.57;;;6.83;;
33074;SDS011;19433;51.292;6.868;2023-04-25T05:39:44;10.37;;;5.70;;
33074;SDS011;19433;51.292;6.868;2023-04-25T05:42:09;13.60;;;6.60;;
33074;SDS011;19433;51.292;6.868;2023-04-25T05:44:35;9.50;;;6.27;;
33074;SDS011;19433;51.292;6.868;2023-04-25T05:47:00;14.07;;;6.33;;
33074;SDS011;19433;51.292;6.868;2023-04-25T05:49:25;13.63;;;4.90;;
33074;SDS011;19433;51.292;6.868;2023-04-25T05:51:51;8.60;;;5.23;;
33074;SDS011;19433;51.292;6.868;2023-04-25T05:54:16;12.27;;;5.60;;
33074;SDS011;19433;51.292;6.868;2023-04-25T05:56:42;13.63;;;6.27;;
33074;SDS011;19433;51.292;6.868;2023-04-25T05:59:08;17.43;;;6.50;;
33074;SDS011;19433;51.292;6.868;2023-04-25T06:01:33;10.90;;;5.43;;
33074;SDS011;19433;51.292;6.868;2023-04-25T06:03:59;13.20;;;5.30;;
33074;SDS011;19433;51.292;6.868;2023-04-25T06:06:24;14.20;;;5.67;;
33074;SDS011;19433;51.292;6.868;2023-04-25T06:08:51;14.70;;;4.13;;
33074;SDS011;19433;51.292;6.868;2023-04-25T06:11:17;9.10;;;4.73;;
33074;SDS011;19433;51.292;6.868;2023-04-25T06:13:42;14.60;;;5.83;;
33074;SDS011;19433;51.292;6.868;2023-04-25T06:16:07;9.43;;;4.33;;
33074;SDS011;19433;51.292;6.868;2023-04-25T06:18:32;9.13;;;4.80;;
33074;SDS011;19433;51.292;6.868;2023-04-25T06:20:58;13.43;;;5.60;;
33074;SDS011;19433;51.292;6.868;2023-04-25T06:23:23;14.20;;;5.17;;
33074;SDS011;19433;51.292;6.868;2023-04-25T06:25:48;8.03;;;4.50;;
33074;SDS011;19433;51.292;6.868;2023-04-25T06:28:14;6.47;;;3.90;;
33074;SDS011;19433;51.292;6.868;2023-04-25T06:30:39;10.67;;;4.27;;
33074;SDS011;19433;51.292;6.868;2023-04-25T06:33:05;11.33;;;4.50;;
33074;SDS011;19433;51.292;6.868;2023-04-25T06:35:30;10.77;;;4.40;;
33074;SDS011;19433;51.292;6.868;2023-04-25T06:37:56;10.27;;;5.30;;
33074;SDS011;19433;51.292;6.868;2023-04-25T06:40:21;11.53;;;6.53;;
33074;SDS011;19433;51.292;6.868;2023-04-25T06:42:46;12.93;;;6.53;;
33074;SDS011;19433;51.292;6.868;2023-04-25T06:45:12;14.27;;;6.37;;
33074;SDS011;19433;51.292;6.868;2023-04-25T06:47:37;16.07;;;6.13;;
33074;SDS011;19433;51.292;6.868;2023-04-25T06:50:03;7.93;;;5.43;;
33074;SDS011;19433;51.292;6.868;2023-04-25T06:52:28;12.60;;;4.90;;
33074;SDS011;19433;51.292;6.868;2023-04-25T06:54:54;7.43;;;4.47;;
33074;SDS011;19433;51.292;6.868;2023-04-25T06:57:19;8.60;;;4.27;;
33074;SDS011;19433;51.292;6.868;2023-04-25T06:59:44;10.70;;;5.60;;
33074;SDS011;19433;51.292;6.868;2023-04-25T07:02:10;7.40;;;4.57;;
33074;SDS011;19433;51.292;6.868;2023-04-25T07:04:35;10.93;;;4.50;;
33074;SDS011;19433;51.292;6.868;2023-04-25T07:07:01;9.33;;;4.77;;
33074;SDS011;19433;51.292;6.868;2023-04-25T07:09:28;14.73;;;4.90;;
33074;SDS011;19433;51.292;6.868;2023-04-25T07:11:53;8.20;;;4.40;;
33074;SDS011;19433;51.292;6.868;2023-04-25T07:14:19;10.27;;;4.30;;
33074;SDS011;19433;51.292;6.868;2023-04-25T07:16:44;12.27;;;4.47;;
33074;SDS011;19433;51.292;6.868;2023-04-25T07:19:09;6.70;;;3.50;;
33074;SDS011;19433;51.292;6.868;2023-04-25T07:21:35;9.10;;;3.90;;
33074;SDS011;19433;51.292;6.868;2023-04-25T07:24:01;9.30;;;4.10;;
33074;SDS011;19433;51.292;6.868;2023-04-25T07:26:26;10.83;;;4.30;;
33074;SDS011;19433;51.292;6.868;2023-04-25T07:28:52;8.70;;;3.97;;
33074;SDS011;19433;51.292;6.868;2023-04-25T07:31:17;11.97;;;4.57;;
33074;SDS011;19433;51.292;6.868;2023-04-25T07:33:43;6.30;;;4.30;;
33074;SDS011;19433;51.292;6.868;2023-04-25T07:36:10;8.23;;;4.47;;
33074;SDS011;19433;51.292;6.868;2023-04-25T07:38:35;9.03;;;4.80;;
33074;SDS011;19433;51.292;6.868;2023-04-25T07:41:01;13.50;;;4.40;;
33074;SDS011;19433;51.292;6.868;2023-04-25T07:43:26;8.87;;;4.40;;
33074;SDS011;19433;51.292;6.868;2023-04-25T07:45:51;11.93;;;4.33;;
33074;SDS011;19433;51.292;6.868;2023-04-25T07:48:17;8.17;;;3.77;;
33074;SDS011;19433;51.292;6.868;2023-04-25T07:50:43;9.20;;;3.93;;
33074;SDS011;19433;51.292;6.868;2023-04-25T07:53:09;14.10;;;3.93;;
33074;SDS011;19433;51.292;6.868;2023-04-25T07:55:34;17.03;;;4.30;;
33074;SDS011;19433;51.292;6.868;2023-04-25T07:58:01;8.20;;;3.63;;
33074;SDS011;19433;51.292;6.868;2023-04-25T08:00:26;6.90;;;3.97;;
33074;SDS011;19433;51.292;6.868;2023-04-25T08:02:52;8.53;;;3.57;;
33074;SDS011;19433;51.292;6.868;2023-04-25T08:05:17;9.90;;;3.67;;
33074;SDS011;19433;51.292;6.868;2023-04-25T08:07:42;9.57;;;4.40;;
33074;SDS011;19433;51.292;6.868;2023-04-25T08:10:08;8.57;;;3.20;;
33074;SDS011;19433;51.292;6.868;2023-04-25T08:12:34;8.33;;;4.07;;
33074;SDS011;19433;51.292;6.868;2023-04-25T08:14:59;7.90;;;3.57;;
33074;SDS011;19433;51.292;6.868;2023-04-25T08:17:24;15.63;;;4.00;;
33074;SDS011;19433;51.292;6.868;2023-04-25T08:19:50;6.07;;;3.00;;
33074;SDS011;19433;51.292;6.868;2023-04-25T08:22:15;7.47;;;3.53;;
33074;SDS011;19433;51.292;6.868;2023-04-25T08:24:41;8.23;;;3.27;;
33074;SDS011;19433;51.292;6.868;2023-04-25T08:27:06;6.20;;;3.00;;
33074;SDS011;19433;51.292;6.868;2023-04-25T08:29:32;6.97;;;3.60;;
33074;SDS011;19433;51.292;6.868;2023-04-25T08:31:58;9.80;;;3.63;;
33074;SDS011;19433;51.292;6.868;2023-04-25T08:34:24;8.73;;;3.43;;
33074;SDS011;19433;51.292;6.868;2023-04-25T08:36:50;8.90;;;3.07;;
33074;SDS011;19433;51.292;6.868;2023-04-25T08:39:15;12.30;;;3.80;;
33074;SDS011;19433;51.292;6.868;2023-04-25T08:41:41;9.63;;;3.87;;
33074;SDS011;19433;51.292;6.868;2023-04-25T08:44:08;6.77;;;3.60;;
33074;SDS011;19433;51.292;6.868;2023-04-25T08:46:35;7.27;;;3.70;;
33074;SDS011;19433;51.292;6.868;2023-04-25T08:49:03;8.60;;;4.03;;
33074;SDS011;19433;51.292;6.868;2023-04-25T08:51:31;4.40;;;3.47;;
33074;SDS011;19433;51.292;6.868;2023-04-25T08:53:57;8.87;;;3.23;;
33074;SDS011;19433;51.292;6.868;2023-04-25T08:56:33;9.97;;;4.37;;
33074;SDS011;19433;51.292;6.868;2023-04-25T08:58:59;8.20;;;3.30;;
33074;SDS011;19433;51.292;6.868;2023-04-25T09:01:26;8.27;;;3.80;;
33074;SDS011;19433;51.292;6.868;2023-04-25T09:03:52;4.90;;;2.80;;
33074;SDS011;19433;51.292;6.868;2023-04-25T09:06:17;5.70;;;2.30;;
33074;SDS011;19433;51.292;6.868;2023-04-25T09:08:44;5.23;;;2.97;;
33074;SDS011;19433;51.292;6.868;2023-04-25T09:11:10;4.73;;;2.50;;
33074;SDS011;19433;51.292;6.868;2023-04-25T09:13:38;5.87;;;2.60;;
33074;SDS011;19433;51.292;6.868;2023-04-25T09:16:03;5.00;;;2.03;;
33074;SDS011;19433;51.292;6.868;2023-04-25T09:18:30;4.33;;;2.43;;
33074;SDS011;19433;51.292;6.868;2023-04-25T09:21:06;4.73;;;2.10;;
33074;SDS011;19433;51.292;6.868;2023-04-25T09:23:38;6.07;;;2.63;;
33074;SDS011;19433;51.292;6.868;2023-04-25T09:26:09;4.77;;;2.47;;
33074;SDS011;19433;51.292;6.868;2023-04-25T09:28:34;4.30;;;2.40;;
33074;SDS011;19433;51.292;6.868;2023-04-25T09:31:01;4.67;;;2.53;;
33074;SDS011;19433;51.292;6.868;2023-04-25T09:33:30;6.77;;;2.87;;
33074;SDS011;19433;51.292;6.868;2023-04-25T09:36:03;4.17;;;2.50;;
33074;SDS011;19433;51.292;6.868;2023-04-25T09:38:40;6.53;;;3.23;;
33074;SDS011;19433;51.292;6.868;2023-04-25T09:41:07;5.40;;;2.73;;
33074;SDS011;19433;51.292;6.868;2023-04-25T09:43:33;6.13;;;3.07;;
33074;SDS011;19433;51.292;6.868;2023-04-25T09:45:59;3.80;;;2.53;;
33074;SDS011;19433;51.292;6.868;2023-04-25T09:48:25;8.60;;;2.73;;
33074;SDS011;19433;51.292;6.868;2023-04-25T09:53:40;6.63;;;2.73;;
33074;SDS011;19433;51.292;6.868;2023-04-25T09:56:08;5.13;;;2.30;;
33074;SDS011;19433;51.292;6.868;2023-04-25T09:58:35;3.83;;;2.00;;
33074;SDS011;19433;51.292;6.868;2023-04-25T10:01:02;6.13;;;2.07;;
33074;SDS011;19433;51.292;6.868;2023-04-25T10:03:29;5.93;;;2.67;;
33074;SDS011;19433;51.292;6.868;2023-04-25T10:05:56;4.90;;;2.13;;
33074;SDS011;19433;51.292;6.868;2023-04-25T10:08:25;4.33;;;2.00;;
33074;SDS011;19433;51.292;6.868;2023-04-25T10:10:51;3.13;;;2.00;;
33074;SDS011;19433;51.292;6.868;2023-04-25T10:13:17;4.00;;;1.17;;
33074;SDS011;19433;51.292;6.868;2023-04-25T10:15:43;3.70;;;2.57;;
33074;SDS011;19433;51.292;6.868;2023-04-25T10:18:09;3.10;;;1.77;;
33074;SDS011;19433;51.292;6.868;2023-04-25T10:20:35;4.87;;;2.20;;
33074;SDS011;19433;51.292;6.868;2023-04-25T10:23:06;6.37;;;2.40;;
33074;SDS011;19433;51.292;6.868;2023-04-25T10:25:37;3.17;;;2.03;;
33074;SDS011;19433;51.292;6.868;2023-04-25T10:28:04;2.90;;;1.93;;
33074;SDS011;19433;51.292;6.868;2023-04-25T10:30:30;3.47;;;1.60;;
33074;SDS011;19433;51.292;6.868;2023-04-25T10:32:55;2.67;;;1.90;;
33074;SDS011;19433;51.292;6.868;2023-04-25T10:35:27;5.10;;;2.20;;
33074;SDS011;19433;51.292;6.868;2023-04-25T10:40:30;3.03;;;2.10;;
33074;SDS011;19433;51.292;6.868;2023-04-25T10:42:56;4.10;;;2.10;;
33074;SDS011;19433;51.292;6.868;2023-04-25T10:45:57;4.50;;;1.90;;
33074;SDS011;19433;51.292;6.868;2023-04-25T10:48:34;5.30;;;2.20;;
33074;SDS011;19433;51.292;6.868;2023-04-25T10:51:09;4.63;;;2.07;;
33074;SDS011;19433;51.292;6.868;2023-04-25T10:53:34;3.70;;;1.80;;
33074;SDS011;19433;51.292;6.868;2023-04-25T10:55:59;5.00;;;2.00;;
33074;SDS011;19433;51.292;6.868;2023-04-25T10:58:25;5.07;;;2.50;;
33074;SDS011;19433;51.292;6.868;2023-04-25T11:00:51;4.47;;;2.33;;
33074;SDS011;19433;51.292;6.868;2023-04-25T11:03:16;6.07;;;1.93;;
33074;SDS011;19433;51.292;6.868;2023-04-25T11:05:42;5.70;;;2.40;;
33074;SDS011;19433;51.292;6.868;2023-04-25T11:08:13;4.13;;;2.40;;
33074;SDS011;19433;51.292;6.868;2023-04-25T11:10:42;3.77;;;2.00;;
33074;SDS011;19433;51.292;6.868;2023-04-25T11:13:07;4.57;;;2.13;;
33074;SDS011;19433;51.292;6.868;2023-04-25T11:15:32;7.73;;;2.40;;
33074;SDS011;19433;51.292;6.868;2023-04-25T11:17:58;4.67;;;2.27;;
33074;SDS011;19433;51.292;6.868;2023-04-25T11:20:25;4.10;;;1.70;;
33074;SDS011;19433;51.292;6.868;2023-04-25T11:22:51;2.73;;;1.33;;
33074;SDS011;19433;51.292;6.868;2023-04-25T11:25:16;4.90;;;2.07;;
33074;SDS011;19433;51.292;6.868;2023-04-25T11:27:55;2.57;;;1.83;;
33074;SDS011;19433;51.292;6.868;2023-04-25T11:30:22;3.67;;;1.90;;
33074;SDS011;19433;51.292;6.868;2023-04-25T11:32:48;3.30;;;1.50;;
33074;SDS011;19433;51.292;6.868;2023-04-25T11:35:14;2.00;;;1.73;;
33074;SDS011;19433;51.292;6.868;2023-04-25T11:37:41;7.60;;;2.13;;
33074;SDS011;19433;51.292;6.868;2023-04-25T11:40:07;7.27;;;2.30;;
33074;SDS011;19433;51.292;6.868;2023-04-25T11:42:36;4.67;;;1.97;;
33074;SDS011;19433;51.292;6.868;2023-04-25T11:45:02;3.53;;;1.90;;
33074;SDS011;19433;51.292;6.868;2023-04-25T11:47:32;4.27;;;1.97;;
33074;SDS011;19433;51.292;6.868;2023-04-25T11:49:59;6.67;;;2.23;;
33074;SDS011;19433;51.292;6.868;2023-04-25T11:52:34;5.80;;;3.00;;
33074;SDS011;19433;51.292;6.868;2023-04-25T11:55:00;7.10;;;2.60;;
33074;SDS011;19433;51.292;6.868;2023-04-25T11:57:26;2.83;;;2.23;;
33074;SDS011;19433;51.292;6.868;2023-04-25T11:59:51;4.97;;;2.53;;
33074;SDS011;19433;51.292;6.868;2023-04-25T12:02:25;3.80;;;2.17;;
33074;SDS011;19433;51.292;6.868;2023-04-25T12:04:51;5.00;;;2.73;;
33074;SDS011;19433;51.292;6.868;2023-04-25T12:07:16;5.23;;;2.40;;
33074;SDS011;19433;51.292;6.868;2023-04-25T12:09:43;4.73;;;2.50;;
33074;SDS011;19433;51.292;6.868;2023-04-25T12:12:17;6.43;;;2.40;;
33074;SDS011;19433;51.292;6.868;2023-04-25T12:14:45;8.13;;;3.27;;
33074;SDS011;19433;51.292;6.868;2023-04-25T12:17:13;5.33;;;2.53;;
33074;SDS011;19433;51.292;6.868;2023-04-25T12:19:38;4.00;;;2.30;;
33074;SDS011;19433;51.292;6.868;2023-04-25T12:22:18;5.30;;;2.90;;
33074;SDS011;19433;51.292;6.868;2023-04-25T12:24:45;3.97;;;2.57;;
33074;SDS011;19433;51.292;6.868;2023-04-25T12:27:11;5.60;;;2.87;;
33074;SDS011;19433;51.292;6.868;2023-04-25T12:29:53;4.87;;;3.33;;
33074;SDS011;19433;51.292;6.868;2023-04-25T12:32:19;6.33;;;3.83;;
33074;SDS011;19433;51.292;6.868;2023-04-25T12:34:45;8.07;;;3.07;;
33074;SDS011;19433;51.292;6.868;2023-04-25T12:37:11;12.20;;;3.53;;
33074;SDS011;19433;51.292;6.868;2023-04-25T12:39:36;4.60;;;3.80;;
33074;SDS011;19433;51.292;6.868;2023-04-25T12:42:02;5.30;;;3.07;;
33074;SDS011;19433;51.292;6.868;2023-04-25T12:44:28;7.47;;;3.27;;
33074;SDS011;19433;51.292;6.868;2023-04-25T12:46:53;10.47;;;3.40;;
33074;SDS011;19433;51.292;6.868;2023-04-25T12:49:19;4.90;;;2.67;;
33074;SDS011;19433;51.292;6.868;2023-04-25T12:51:45;6.63;;;3.37;;
33074;SDS011;19433;51.292;6.868;2023-04-25T12:54:10;3.90;;;2.40;;
33074;SDS011;19433;51.292;6.868;2023-04-25T12:56:36;3.40;;;2.30;;
33074;SDS011;19433;51.292;6.868;2023-04-25T12:59:01;4.23;;;2.77;;
33074;SDS011;19433;51.292;6.868;2023-04-25T13:01:30;5.53;;;2.87;;
33074;SDS011;19433;51.292;6.868;2023-04-25T13:03:56;4.43;;;2.33;;
33074;SDS011;19433;51.292;6.868;2023-04-25T13:06:22;2.90;;;2.13;;
33074;SDS011;19433;51.292;6.868;2023-04-25T13:08:47;6.37;;;2.20;;
33074;SDS011;19433;51.292;6.868;2023-04-25T13:11:12;3.43;;;2.13;;
33074;SDS011;19433;51.292;6.868;2023-04-25T13:13:39;6.53;;;2.43;;
33074;SDS011;19433;51.292;6.868;2023-04-25T13:16:05;5.10;;;2.20;;
33074;SDS011;19433;51.292;6.868;2023-04-25T13:18:31;4.60;;;2.20;;
33074;SDS011;19433;51.292;6.868;2023-04-25T13:20:56;3.00;;;1.80;;
33074;SDS011;19433;51.292;6.868;2023-04-25T13:23:22;4.30;;;2.03;;
33074;SDS011;19433;51.292;6.868;2023-04-25T13:25:48;4.50;;;1.90;;
33074;SDS011;19433;51.292;6.868;2023-04-25T13:28:14;4.07;;;2.10;;
33074;SDS011;19433;51.292;6.868;2023-04-25T13:30:40;2.80;;;1.37;;
33074;SDS011;19433;51.292;6.868;2023-04-25T13:33:05;3.67;;;2.47;;
33074;SDS011;19433;51.292;6.868;2023-04-25T13:35:31;4.00;;;2.13;;
33074;SDS011;19433;51.292;6.868;2023-04-25T13:37:57;2.67;;;1.77;;
33074;SDS011;19433;51.292;6.868;2023-04-25T13:40:23;2.10;;;1.50;;
33074;SDS011;19433;51.292;6.868;2023-04-25T13:42:48;5.13;;;2.20;;
33074;SDS011;19433;51.292;6.868;2023-04-25T13:45:13;3.47;;;2.23;;
33074;SDS011;19433;51.292;6.868;2023-04-25T13:47:39;3.40;;;1.93;;
33074;SDS011;19433;51.292;6.868;2023-04-25T13:50:04;3.83;;;2.13;;
33074;SDS011;19433;51.292;6.868;2023-04-25T13:52:30;5.73;;;2.83;;
33074;SDS011;19433;51.292;6.868;2023-04-25T13:54:56;3.20;;;2.20;;
33074;SDS011;19433;51.292;6.868;2023-04-25T13:57:22;4.20;;;2.80;;
33074;SDS011;19433;51.292;6.868;2023-04-25T13:59:47;4.73;;;2.10;;
33074;SDS011;19433;51.292;6.868;2023-04-25T14:02:13;15.00;;;2.70;;
33074;SDS011;19433;51.292;6.868;2023-04-25T14:04:38;3.97;;;2.13;;
33074;SDS011;19433;51.292;6.868;2023-04-25T14:07:03;5.00;;;2.40;;
33074;SDS011;19433;51.292;6.868;2023-04-25T14:09:29;5.20;;;2.00;;
33074;SDS011;19433;51.292;6.868;2023-04-25T14:11:55;10.93;;;3.23;;
33074;SDS011;19433;51.292;6.868;2023-04-25T14:14:21;4.63;;;2.60;;
33074;SDS011;19433;51.292;6.868;2023-04-25T14:16:48;3.93;;;2.13;;
33074;SDS011;19433;51.292;6.868;2023-04-25T14:19:15;4.83;;;2.23;;
33074;SDS011;19433;51.292;6.868;2023-04-25T14:21:43;3.10;;;1.93;;
33074;SDS011;19433;51.292;6.868;2023-04-25T14:24:09;8.60;;;2.63;;
33074;SDS011;19433;51.292;6.868;2023-04-25T14:26:35;8.00;;;2.70;;
33074;SDS011;19433;51.292;6.868;2023-04-25T14:29:01;6.90;;;3.03;;
33074;SDS011;19433;51.292;6.868;2023-04-25T14:31:27;2.10;;;1.70;;
33074;SDS011;19433;51.292;6.868;2023-04-25T14:33:53;3.97;;;2.20;;
33074;SDS011;19433;51.292;6.868;2023-04-25T14:36:18;8.03;;;2.60;;
33074;SDS011;19433;51.292;6.868;2023-04-25T14:38:43;4.67;;;2.10;;
33074;SDS011;19433;51.292;6.868;2023-04-25T14:41:09;5.70;;;3.10;;
33074;SDS011;19433;51.292;6.868;2023-04-25T14:43:35;4.03;;;2.37;;
33074;SDS011;19433;51.292;6.868;2023-04-25T14:46:01;9.10;;;2.50;;
33074;SDS011;19433;51.292;6.868;2023-04-25T14:48:27;4.40;;;2.00;;
33074;SDS011;19433;51.292;6.868;2023-04-25T14:50:52;5.10;;;2.77;;
33074;SDS011;19433;51.292;6.868;2023-04-25T14:53:17;3.00;;;2.50;;
33074;SDS011;19433;51.292;6.868;2023-04-25T14:55:43;5.37;;;2.73;;
33074;SDS011;19433;51.292;6.868;2023-04-25T14:58:08;3.50;;;1.70;;
33074;SDS011;19433;51.292;6.868;2023-04-25T15:00:34;4.13;;;1.70;;
33074;SDS011;19433;51.292;6.868;2023-04-25T15:02:59;5.60;;;2.37;;
33074;SDS011;19433;51.292;6.868;2023-04-25T15:05:25;7.07;;;2.30;;
33074;SDS011;19433;51.292;6.868;2023-04-25T15:07:50;7.27;;;2.10;;
33074;SDS011;19433;51.292;6.868;2023-04-25T15:10:16;5.03;;;2.43;;
33074;SDS011;19433;51.292;6.868;2023-04-25T15:12:43;5.03;;;2.13;;
33074;SDS011;19433;51.292;6.868;2023-04-25T15:15:09;4.40;;;2.13;;
33074;SDS011;19433;51.292;6.868;2023-04-25T15:17:38;4.73;;;2.50;;